Hollytree, AL (35751)

1:31 AM CDT on July 29, 2016 (GMT -0500)
Gurley | | Change Station

Elev 745 ft 34.80 °N, 86.39 °W | Updated 60 seconds ago

Mostly Cloudy
Mostly Cloudy
72.1 °F
Feels Like 72.1 °F
N
1.0
Wind Variable Wind from East
Gusts 2.0 mph

Today
High -- | Low -- °F
--% Chance of Precip.
Yesterday
High -- | Low -- °F
Precip. -- in
Pressure 30.01 in
Visibility 7.0 miles
Clouds Scattered Clouds 1400 ft
Scattered Clouds 2100 ft
Mostly Cloudy 2500 ft
Dew Point 72 °F
Humidity 98%
Rainfall 0.00 in
Snow Depth Not available.
5:53 AM 7:49 PM
Waning Crescent, 25% visible
METAR KMDQ 290615Z AUTO 00000KT 7SM SCT014 SCT021 BKN025 22/20 A3001 RMK AO2
Pressure 30.01 in
Visibility 7.0 miles
Clouds Scattered Clouds 1400 ft
Scattered Clouds 2100 ft
Mostly Cloudy 2500 ft
Dew Point 72 °F
Humidity 98%
Rainfall 0.00 in
Snow Depth Not available.
5:53 AM 7:49 PM
Waning Crescent, 25% visible
METAR KMDQ 290615Z AUTO 00000KT 7SM SCT014 SCT021 BKN025 22/20 A3001 RMK AO2

10-Day Weather Forecast

Almanac

Astronomy

Jul. 29, 2016 Rise Set
Actual Time
Civil Twilight
Nautical Twilight
Astronomical Twilight
Moon
Length of Visible Light
Length of Day
Tomorrow will be .
, % of the Moon is Illuminated

Today's Extremes

State Highs State Lows

Community

WunderPhotos

Upload Photos

1,928,299 photos uploaded!

WunderBlog® & News

Nearby

Air Quality

  Air Quality AQ Index Pollutant
Not available.

Snow Depth

Station Depth Elevation

Earthquake Activity

City Distance Mag. Time & Date
Minimum magnitude displayed is 2.5.

Coastal Water Temperatures

Place Temperature

Stations

Nearby Weather Stations

Station Location Temp. Windchill Dew Point Humidity Wind Precip. Elev Updated Type
                   

Watches & Warnings

There are currently no watches in effect.